sensor_id;sensor_type;location;lat;lon;timestamp;pressure;altitude;pressure_sealevel;temperature;humidity
65800;BME280;52544;48.116;11.660;2023-12-20T00:02:23;95612.47;;;6.16;65.35
65800;BME280;52544;48.116;11.660;2023-12-20T00:04:48;95601.22;;;6.14;65.87
65800;BME280;52544;48.116;11.660;2023-12-20T00:07:14;95601.75;;;6.06;66.70
65800;BME280;52544;48.116;11.660;2023-12-20T00:09:39;95606.59;;;5.99;67.13
65800;BME280;52544;48.116;11.660;2023-12-20T00:12:05;95603.00;;;6.00;67.63
65800;BME280;52544;48.116;11.660;2023-12-20T00:14:30;95598.06;;;5.96;67.67
65800;BME280;52544;48.116;11.660;2023-12-20T00:16:56;95588.59;;;5.93;67.18
65800;BME280;52544;48.116;11.660;2023-12-20T00:19:21;95574.78;;;5.90;67.49
65800;BME280;52544;48.116;11.660;2023-12-20T00:21:46;95576.03;;;5.84;67.92
65800;BME280;52544;48.116;11.660;2023-12-20T00:24:12;95570.97;;;5.81;68.53
65800;BME280;52544;48.116;11.660;2023-12-20T00:26:37;95562.38;;;5.79;68.87
65800;BME280;52544;48.116;11.660;2023-12-20T00:29:03;95564.91;;;5.81;69.06
65800;BME280;52544;48.116;11.660;2023-12-20T00:31:28;95564.06;;;5.80;69.03
65800;BME280;52544;48.116;11.660;2023-12-20T00:33:53;95557.97;;;5.80;70.02
65800;BME280;52544;48.116;11.660;2023-12-20T00:36:19;95547.28;;;5.83;69.35
65800;BME280;52544;48.116;11.660;2023-12-20T00:38:45;95549.91;;;5.83;70.14
65800;BME280;52544;48.116;11.660;2023-12-20T00:41:10;95545.38;;;5.85;69.94
65800;BME280;52544;48.116;11.660;2023-12-20T00:43:35;95548.00;;;5.85;71.01
65800;BME280;52544;48.116;11.660;2023-12-20T00:46:01;95546.31;;;5.84;70.73
65800;BME280;52544;48.116;11.660;2023-12-20T00:48:26;95547.28;;;5.83;70.84
65800;BME280;52544;48.116;11.660;2023-12-20T00:50:52;95539.72;;;5.91;67.95
65800;BME280;52544;48.116;11.660;2023-12-20T00:53:18;95539.31;;;6.10;62.91
65800;BME280;52544;48.116;11.660;2023-12-20T00:55:43;95543.31;;;6.28;61.52
65800;BME280;52544;48.116;11.660;2023-12-20T00:58:10;95532.38;;;6.34;61.28
65800;BME280;52544;48.116;11.660;2023-12-20T01:00:35;95535.22;;;6.44;60.34
65800;BME280;52544;48.116;11.660;2023-12-20T01:03:00;95526.59;;;6.42;60.90
65800;BME280;52544;48.116;11.660;2023-12-20T01:05:26;95527.31;;;6.44;60.84
65800;BME280;52544;48.116;11.660;2023-12-20T01:07:51;95521.56;;;6.39;62.83
65800;BME280;52544;48.116;11.660;2023-12-20T01:10:17;95515.34;;;6.40;60.20
65800;BME280;52544;48.116;11.660;2023-12-20T01:12:43;95506.25;;;6.57;59.06
65800;BME280;52544;48.116;11.660;2023-12-20T01:15:09;95502.44;;;6.73;58.41
65800;BME280;52544;48.116;11.660;2023-12-20T01:17:34;95497.94;;;6.75;58.99
65800;BME280;52544;48.116;11.660;2023-12-20T01:20:00;95502.44;;;6.73;59.06
65800;BME280;52544;48.116;11.660;2023-12-20T01:22:25;95500.31;;;6.79;58.48
65800;BME280;52544;48.116;11.660;2023-12-20T01:24:51;95497.19;;;6.73;59.22
65800;BME280;52544;48.116;11.660;2023-12-20T01:27:16;95495.50;;;6.72;59.71
65800;BME280;52544;48.116;11.660;2023-12-20T01:29:42;95491.72;;;6.76;59.27
65800;BME280;52544;48.116;11.660;2023-12-20T01:32:07;95491.19;;;6.71;58.96
65800;BME280;52544;48.116;11.660;2023-12-20T01:34:32;95487.13;;;6.67;60.52
65800;BME280;52544;48.116;11.660;2023-12-20T01:36:58;95476.81;;;6.64;60.76
65800;BME280;52544;48.116;11.660;2023-12-20T01:39:23;95481.06;;;6.78;60.33
65800;BME280;52544;48.116;11.660;2023-12-20T01:41:49;95482.66;;;6.81;60.45
65800;BME280;52544;48.116;11.660;2023-12-20T01:44:14;95482.84;;;6.78;60.78
65800;BME280;52544;48.116;11.660;2023-12-20T01:46:40;95481.41;;;6.73;61.27
65800;BME280;52544;48.116;11.660;2023-12-20T01:49:06;95483.47;;;6.81;61.98
65800;BME280;52544;48.116;11.660;2023-12-20T01:51:32;95473.31;;;6.76;62.80
65800;BME280;52544;48.116;11.660;2023-12-20T01:53:59;95463.81;;;6.74;62.95
65800;BME280;52544;48.116;11.660;2023-12-20T01:56:26;95455.31;;;6.70;63.42
65800;BME280;52544;48.116;11.660;2023-12-20T01:58:54;95461.88;;;6.65;64.08
65800;BME280;52544;48.116;11.660;2023-12-20T02:01:20;95459.84;;;6.68;63.30
65800;BME280;52544;48.116;11.660;2023-12-20T02:03:45;95451.41;;;6.76;62.69
65800;BME280;52544;48.116;11.660;2023-12-20T02:06:11;95452.69;;;6.70;63.66
65800;BME280;52544;48.116;11.660;2023-12-20T02:08:37;95441.66;;;6.65;64.52
65800;BME280;52544;48.116;11.660;2023-12-20T02:11:02;95433.78;;;6.65;64.01
65800;BME280;52544;48.116;11.660;2023-12-20T02:13:28;95423.59;;;6.85;62.68
65800;BME280;52544;48.116;11.660;2023-12-20T02:15:54;95420.34;;;6.81;62.93
65800;BME280;52544;48.116;11.660;2023-12-20T02:18:19;95422.53;;;6.87;62.47
65800;BME280;52544;48.116;11.660;2023-12-20T02:20:45;95405.88;;;6.75;63.73
65800;BME280;52544;48.116;11.660;2023-12-20T02:23:10;95412.56;;;6.80;63.63
65800;BME280;52544;48.116;11.660;2023-12-20T02:25:36;95410.66;;;6.82;63.41
65800;BME280;52544;48.116;11.660;2023-12-20T02:28:03;95413.78;;;6.87;62.96
65800;BME280;52544;48.116;11.660;2023-12-20T02:30:29;95412.50;;;6.92;62.97
65800;BME280;52544;48.116;11.660;2023-12-20T02:32:54;95419.84;;;7.00;62.69
65800;BME280;52544;48.116;11.660;2023-12-20T02:35:20;95414.34;;;7.03;62.63
65800;BME280;52544;48.116;11.660;2023-12-20T02:37:45;95420.78;;;6.99;63.02
65800;BME280;52544;48.116;11.660;2023-12-20T02:40:11;95414.91;;;6.95;63.61
65800;BME280;52544;48.116;11.660;2023-12-20T02:42:36;95409.69;;;7.07;63.19
65800;BME280;52544;48.116;11.660;2023-12-20T02:45:02;95411.53;;;7.17;62.96
65800;BME280;52544;48.116;11.660;2023-12-20T02:47:27;95400.91;;;7.19;63.41
65800;BME280;52544;48.116;11.660;2023-12-20T02:49:55;95399.31;;;7.16;63.27
65800;BME280;52544;48.116;11.660;2023-12-20T02:52:21;95399.78;;;7.10;64.87
65800;BME280;52544;48.116;11.660;2023-12-20T02:54:46;95396.91;;;7.02;65.81
65800;BME280;52544;48.116;11.660;2023-12-20T02:57:12;95394.28;;;7.13;64.91
65800;BME280;52544;48.116;11.660;2023-12-20T02:59:37;95387.91;;;7.05;66.31
65800;BME280;52544;48.116;11.660;2023-12-20T03:02:02;95393.31;;;7.03;66.47
65800;BME280;52544;48.116;11.660;2023-12-20T03:04:28;95398.72;;;7.13;66.38
65800;BME280;52544;48.116;11.660;2023-12-20T03:06:53;95389.41;;;7.20;66.29
65800;BME280;52544;48.116;11.660;2023-12-20T03:09:19;95395.50;;;7.20;66.98
65800;BME280;52544;48.116;11.660;2023-12-20T03:11:44;95404.16;;;7.22;67.55
65800;BME280;52544;48.116;11.660;2023-12-20T03:14:09;95403.53;;;7.19;68.46
65800;BME280;52544;48.116;11.660;2023-12-20T03:16:35;95405.41;;;7.17;69.03
65800;BME280;52544;48.116;11.660;2023-12-20T03:19:00;95400.06;;;7.18;69.63
65800;BME280;52544;48.116;11.660;2023-12-20T03:21:26;95395.03;;;7.15;70.44
65800;BME280;52544;48.116;11.660;2023-12-20T03:23:51;95397.25;;;7.09;71.27
65800;BME280;52544;48.116;11.660;2023-12-20T03:26:16;95395.16;;;7.14;71.68
65800;BME280;52544;48.116;11.660;2023-12-20T03:28:42;95394.28;;;7.13;72.75
65800;BME280;52544;48.116;11.660;2023-12-20T03:31:09;95395.97;;;7.14;73.21
65800;BME280;52544;48.116;11.660;2023-12-20T03:33:34;95401.69;;;7.08;74.56
65800;BME280;52544;48.116;11.660;2023-12-20T03:36:00;95402.66;;;7.07;75.09
65800;BME280;52544;48.116;11.660;2023-12-20T03:38:25;95398.56;;;7.03;74.09
65800;BME280;52544;48.116;11.660;2023-12-20T03:40:51;95405.28;;;7.07;72.11
65800;BME280;52544;48.116;11.660;2023-12-20T03:43:16;95404.03;;;7.00;74.35
65800;BME280;52544;48.116;11.660;2023-12-20T03:45:44;95404.66;;;7.04;75.82
65800;BME280;52544;48.116;11.660;2023-12-20T03:48:09;95416.84;;;7.05;79.61
65800;BME280;52544;48.116;11.660;2023-12-20T03:50:35;95417.72;;;7.05;84.01
65800;BME280;52544;48.116;11.660;2023-12-20T03:53:01;95425.03;;;7.13;86.02
65800;BME280;52544;48.116;11.660;2023-12-20T03:55:26;95430.06;;;7.16;88.37
65800;BME280;52544;48.116;11.660;2023-12-20T03:57:52;95429.47;;;7.12;90.37
65800;BME280;52544;48.116;11.660;2023-12-20T04:00:17;95428.41;;;7.15;91.42
65800;BME280;52544;48.116;11.660;2023-12-20T04:02:43;95432.22;;;7.11;95.57
65800;BME280;52544;48.116;11.660;2023-12-20T04:05:09;95434.84;;;7.11;99.02
65800;BME280;52544;48.116;11.660;2023-12-20T04:07:35;95440.94;;;7.11;100.00
65800;BME280;52544;48.116;11.660;2023-12-20T04:10:01;95441.16;;;7.08;100.00
65800;BME280;52544;48.116;11.660;2023-12-20T04:12:30;95434.00;;;7.10;100.00
65800;BME280;52544;48.116;11.660;2023-12-20T04:14:56;95435.63;;;7.00;100.00
65800;BME280;52544;48.116;11.660;2023-12-20T04:17:21;95430.59;;;6.97;100.00
65800;BME280;52544;48.116;11.660;2023-12-20T04:19:48;95429.16;;;6.93;100.00
65800;BME280;52544;48.116;11.660;2023-12-20T04:22:14;95439.75;;;6.91;100.00
65800;BME280;52544;48.116;11.660;2023-12-20T04:24:39;95433.03;;;6.87;100.00
65800;BME280;52544;48.116;11.660;2023-12-20T04:27:07;95427.91;;;6.86;100.00
65800;BME280;52544;48.116;11.660;2023-12-20T04:29:33;95439.81;;;6.79;100.00
65800;BME280;52544;48.116;11.660;2023-12-20T04:31:58;95430.72;;;6.71;100.00
65800;BME280;52544;48.116;11.660;2023-12-20T04:34:24;95426.72;;;6.66;100.00
65800;BME280;52544;48.116;11.660;2023-12-20T04:36:49;95431.97;;;6.66;100.00
65800;BME280;52544;48.116;11.660;2023-12-20T04:39:14;95423.19;;;6.54;100.00
65800;BME280;52544;48.116;11.660;2023-12-20T04:41:40;95424.88;;;6.55;100.00
65800;BME280;52544;48.116;11.660;2023-12-20T04:44:05;95424.97;;;6.54;100.00
65800;BME280;52544;48.116;11.660;2023-12-20T04:46:31;95430.34;;;6.52;100.00
65800;BME280;52544;48.116;11.660;2023-12-20T04:48:56;95440.88;;;6.52;100.00
65800;BME280;52544;48.116;11.660;2023-12-20T04:51:22;95439.41;;;6.48;100.00
65800;BME280;52544;48.116;11.660;2023-12-20T04:53:47;95448.53;;;6.55;100.00
65800;BME280;52544;48.116;11.660;2023-12-20T04:56:13;95442.25;;;6.45;100.00
65800;BME280;52544;48.116;11.660;2023-12-20T04:58:38;95458.75;;;6.47;100.00
65800;BME280;52544;48.116;11.660;2023-12-20T05:01:05;95458.13;;;6.43;100.00
65800;BME280;52544;48.116;11.660;2023-12-20T05:03:31;95455.38;;;6.45;100.00
65800;BME280;52544;48.116;11.660;2023-12-20T05:05:57;95462.75;;;6.40;100.00
65800;BME280;52544;48.116;11.660;2023-12-20T05:08:22;95470.97;;;6.35;100.00
65800;BME280;52544;48.116;11.660;2023-12-20T05:10:47;95485.50;;;6.28;100.00
65800;BME280;52544;48.116;11.660;2023-12-20T05:13:13;95490.88;;;6.26;100.00
65800;BME280;52544;48.116;11.660;2023-12-20T05:15:38;95483.41;;;6.20;100.00
65800;BME280;52544;48.116;11.660;2023-12-20T05:18:04;95487.22;;;6.04;100.00
65800;BME280;52544;48.116;11.660;2023-12-20T05:20:29;95491.19;;;6.09;100.00
65800;BME280;52544;48.116;11.660;2023-12-20T05:22:55;95488.25;;;6.01;100.00
65800;BME280;52544;48.116;11.660;2023-12-20T05:25:20;95490.72;;;5.90;100.00
65800;BME280;52544;48.116;11.660;2023-12-20T05:27:45;95499.44;;;5.90;100.00
65800;BME280;52544;48.116;11.660;2023-12-20T05:30:11;95491.81;;;5.87;100.00
65800;BME280;52544;48.116;11.660;2023-12-20T05:32:37;95507.97;;;5.81;100.00
65800;BME280;52544;48.116;11.660;2023-12-20T05:35:02;95503.78;;;5.79;100.00
65800;BME280;52544;48.116;11.660;2023-12-20T05:37:28;95511.13;;;5.73;100.00
65800;BME280;52544;48.116;11.660;2023-12-20T05:39:54;95511.84;;;5.75;100.00
65800;BME280;52544;48.116;11.660;2023-12-20T05:42:19;95517.31;;;5.72;100.00
65800;BME280;52544;48.116;11.660;2023-12-20T05:44:44;95517.19;;;5.61;100.00
65800;BME280;52544;48.116;11.660;2023-12-20T05:47:10;95528.09;;;5.55;100.00
65800;BME280;52544;48.116;11.660;2023-12-20T05:49:35;95520.22;;;5.55;100.00
65800;BME280;52544;48.116;11.660;2023-12-20T05:52:00;95529.72;;;5.43;100.00
65800;BME280;52544;48.116;11.660;2023-12-20T05:54:26;95538.66;;;5.41;100.00
65800;BME280;52544;48.116;11.660;2023-12-20T05:56:51;95532.59;;;5.40;100.00
65800;BME280;52544;48.116;11.660;2023-12-20T05:59:17;95542.97;;;5.42;100.00
65800;BME280;52544;48.116;11.660;2023-12-20T06:01:42;95542.44;;;5.37;100.00
65800;BME280;52544;48.116;11.660;2023-12-20T06:04:07;95554.06;;;5.33;100.00
65800;BME280;52544;48.116;11.660;2023-12-20T06:06:33;95553.03;;;5.35;100.00
65800;BME280;52544;48.116;11.660;2023-12-20T06:08:58;95551.94;;;5.25;100.00
65800;BME280;52544;48.116;11.660;2023-12-20T06:11:24;95557.59;;;5.19;100.00
65800;BME280;52544;48.116;11.660;2023-12-20T06:13:49;95564.22;;;5.24;100.00
65800;BME280;52544;48.116;11.660;2023-12-20T06:16:17;95556.00;;;5.16;100.00
65800;BME280;52544;48.116;11.660;2023-12-20T06:18:43;95566.38;;;5.18;100.00
65800;BME280;52544;48.116;11.660;2023-12-20T06:21:08;95574.41;;;5.02;100.00
65800;BME280;52544;48.116;11.660;2023-12-20T06:23:38;95579.38;;;5.07;100.00
65800;BME280;52544;48.116;11.660;2023-12-20T06:26:03;95575.69;;;5.09;100.00
65800;BME280;52544;48.116;11.660;2023-12-20T06:28:28;95578.53;;;5.06;100.00
65800;BME280;52544;48.116;11.660;2023-12-20T06:30:54;95583.56;;;5.09;100.00
65800;BME280;52544;48.116;11.660;2023-12-20T06:33:20;95590.63;;;4.94;100.00
65800;BME280;52544;48.116;11.660;2023-12-20T06:35:47;95594.75;;;4.84;100.00
65800;BME280;52544;48.116;11.660;2023-12-20T06:38:12;95586.81;;;4.86;100.00
65800;BME280;52544;48.116;11.660;2023-12-20T06:40:38;95596.66;;;4.82;100.00
65800;BME280;52544;48.116;11.660;2023-12-20T06:43:03;95601.34;;;4.77;100.00
65800;BME280;52544;48.116;11.660;2023-12-20T06:45:28;95616.22;;;4.76;100.00
65800;BME280;52544;48.116;11.660;2023-12-20T06:47:54;95613.78;;;4.73;100.00
65800;BME280;52544;48.116;11.660;2023-12-20T06:50:20;95625.19;;;4.58;100.00
65800;BME280;52544;48.116;11.660;2023-12-20T06:52:45;95625.19;;;4.58;100.00
65800;BME280;52544;48.116;11.660;2023-12-20T06:55:11;95622.41;;;4.61;100.00
65800;BME280;52544;48.116;11.660;2023-12-20T06:57:36;95630.66;;;4.55;100.00
65800;BME280;52544;48.116;11.660;2023-12-20T07:00:02;95630.34;;;4.45;100.00
65800;BME280;52544;48.116;11.660;2023-12-20T07:02:28;95633.06;;;4.44;100.00
65800;BME280;52544;48.116;11.660;2023-12-20T07:04:55;95631.19;;;4.46;100.00
65800;BME280;52544;48.116;11.660;2023-12-20T07:07:21;95634.38;;;4.37;100.00
65800;BME280;52544;48.116;11.660;2023-12-20T07:09:48;95636.81;;;4.40;100.00
65800;BME280;52544;48.116;11.660;2023-12-20T07:12:14;95642.31;;;4.35;100.00
65800;BME280;52544;48.116;11.660;2023-12-20T07:14:39;95649.19;;;4.38;100.00
65800;BME280;52544;48.116;11.660;2023-12-20T07:17:04;95654.03;;;4.30;100.00
65800;BME280;52544;48.116;11.660;2023-12-20T07:19:30;95668.44;;;4.37;100.00
65800;BME280;52544;48.116;11.660;2023-12-20T07:21:55;95657.03;;;4.38;100.00
65800;BME280;52544;48.116;11.660;2023-12-20T07:24:21;95670.38;;;4.33;100.00
65800;BME280;52544;48.116;11.660;2023-12-20T07:26:46;95663.75;;;4.28;100.00
65800;BME280;52544;48.116;11.660;2023-12-20T07:29:11;95668.03;;;4.29;100.00
65800;BME280;52544;48.116;11.660;2023-12-20T07:31:37;95674.88;;;4.31;100.00
65800;BME280;52544;48.116;11.660;2023-12-20T07:34:03;95673.88;;;4.34;100.00
65800;BME280;52544;48.116;11.660;2023-12-20T07:36:28;95669.75;;;4.44;100.00
65800;BME280;52544;48.116;11.660;2023-12-20T07:38:54;95679.69;;;4.39;100.00
65800;BME280;52544;48.116;11.660;2023-12-20T07:41:19;95671.16;;;4.35;100.00
65800;BME280;52544;48.116;11.660;2023-12-20T07:43:46;95678.00;;;4.38;100.00
65800;BME280;52544;48.116;11.660;2023-12-20T07:46:12;95680.13;;;4.31;100.00
65800;BME280;52544;48.116;11.660;2023-12-20T07:48:38;95669.47;;;4.34;100.00
65800;BME280;52544;48.116;11.660;2023-12-20T07:51:04;95668.03;;;4.29;100.00
65800;BME280;52544;48.116;11.660;2023-12-20T07:53:32;95665.25;;;4.32;100.00
65800;BME280;52544;48.116;11.660;2023-12-20T07:55:58;95677.78;;;4.41;100.00
65800;BME280;52544;48.116;11.660;2023-12-20T07:58:23;95677.72;;;4.42;100.00
65800;BME280;52544;48.116;11.660;2023-12-20T08:00:49;95689.03;;;4.43;100.00
65800;BME280;52544;48.116;11.660;2023-12-20T08:03:14;95675.28;;;4.39;100.00
65800;BME280;52544;48.116;11.660;2023-12-20T08:05:40;95683.41;;;4.35;100.00
65800;BME280;52544;48.116;11.660;2023-12-20T08:08:06;95690.34;;;4.36;100.00
65800;BME280;52544;48.116;11.660;2023-12-20T08:10:31;95694.34;;;4.41;100.00
65800;BME280;52544;48.116;11.660;2023-12-20T08:12:57;95689.34;;;4.53;100.00
65800;BME280;52544;48.116;11.660;2023-12-20T08:15:22;95694.94;;;4.46;100.00
65800;BME280;52544;48.116;11.660;2023-12-20T08:17:49;95691.28;;;4.49;100.00
65800;BME280;52544;48.116;11.660;2023-12-20T08:20:16;95686.88;;;4.49;100.00
65800;BME280;52544;48.116;11.660;2023-12-20T08:22:42;95694.28;;;4.43;100.00
65800;BME280;52544;48.116;11.660;2023-12-20T08:25:07;95695.22;;;4.42;100.00
65800;BME280;52544;48.116;11.660;2023-12-20T08:27:34;95691.38;;;4.47;100.00
65800;BME280;52544;48.116;11.660;2023-12-20T08:29:59;95695.97;;;4.44;100.00
65800;BME280;52544;48.116;11.660;2023-12-20T08:32:25;95695.47;;;4.37;100.00
65800;BME280;52544;48.116;11.660;2023-12-20T08:34:51;95705.13;;;4.37;100.00
65800;BME280;52544;48.116;11.660;2023-12-20T08:37:16;95687.53;;;4.39;100.00
65800;BME280;52544;48.116;11.660;2023-12-20T08:39:42;95708.94;;;4.31;100.00
65800;BME280;52544;48.116;11.660;2023-12-20T08:42:09;95705.94;;;4.37;100.00
65800;BME280;52544;48.116;11.660;2023-12-20T08:44:34;95714.69;;;4.38;100.00
65800;BME280;52544;48.116;11.660;2023-12-20T08:47:00;95705.13;;;4.37;100.00
65800;BME280;52544;48.116;11.660;2023-12-20T08:49:25;95689.88;;;4.43;100.00
65800;BME280;52544;48.116;11.660;2023-12-20T08:51:51;95706.16;;;4.34;100.00
65800;BME280;52544;48.116;11.660;2023-12-20T08:54:16;95699.81;;;4.38;100.00
65800;BME280;52544;48.116;11.660;2023-12-20T08:56:42;95705.50;;;4.31;100.00
65800;BME280;52544;48.116;11.660;2023-12-20T08:59:08;95705.31;;;4.34;100.00
65800;BME280;52544;48.116;11.660;2023-12-20T09:01:34;95708.00;;;4.32;100.00
65800;BME280;52544;48.116;11.660;2023-12-20T09:04:00;95713.91;;;4.36;100.00
65800;BME280;52544;48.116;11.660;2023-12-20T09:06:25;95707.72;;;4.37;100.00
65800;BME280;52544;48.116;11.660;2023-12-20T09:08:51;95713.81;;;4.37;100.00
65800;BME280;52544;48.116;11.660;2023-12-20T09:11:17;95706.44;;;4.44;100.00
65800;BME280;52544;48.116;11.660;2023-12-20T09:13:43;95699.16;;;4.49;100.00
65800;BME280;52544;48.116;11.660;2023-12-20T09:16:09;95698.59;;;4.58;100.00
65800;BME280;52544;48.116;11.660;2023-12-20T09:18:35;95702.53;;;4.65;100.00
65800;BME280;52544;48.116;11.660;2023-12-20T09:21:00;95703.09;;;4.70;100.00
65800;BME280;52544;48.116;11.660;2023-12-20T09:23:25;95704.22;;;4.66;100.00
65800;BME280;52544;48.116;11.660;2023-12-20T09:25:51;95710.41;;;4.65;100.00
65800;BME280;52544;48.116;11.660;2023-12-20T09:28:16;95710.41;;;4.65;100.00
65800;BME280;52544;48.116;11.660;2023-12-20T09:30:42;95706.28;;;4.75;100.00
65800;BME280;52544;48.116;11.660;2023-12-20T09:33:07;95711.75;;;4.72;100.00
65800;BME280;52544;48.116;11.660;2023-12-20T09:35:33;95721.19;;;4.75;100.00
65800;BME280;52544;48.116;11.660;2023-12-20T09:37:58;95715.09;;;4.74;100.00
65800;BME280;52544;48.116;11.660;2023-12-20T09:40:25;95719.16;;;4.80;100.00
65800;BME280;52544;48.116;11.660;2023-12-20T09:43:01;95703.50;;;4.79;100.00
65800;BME280;52544;48.116;11.660;2023-12-20T09:45:30;95708.72;;;4.79;100.00
65800;BME280;52544;48.116;11.660;2023-12-20T09:47:57;95704.44;;;4.78;100.00
65800;BME280;52544;48.116;11.660;2023-12-20T09:50:23;95705.16;;;4.80;100.00
65800;BME280;52544;48.116;11.660;2023-12-20T09:52:50;95701.03;;;4.75;100.00
65800;BME280;52544;48.116;11.660;2023-12-20T09:55:20;95697.50;;;4.76;100.00
65800;BME280;52544;48.116;11.660;2023-12-20T09:57:49;95696.75;;;4.74;100.00
65800;BME280;52544;48.116;11.660;2023-12-20T10:00:15;95697.22;;;4.81;100.00
65800;BME280;52544;48.116;11.660;2023-12-20T10:02:48;95700.13;;;4.76;100.00
65800;BME280;52544;48.116;11.660;2023-12-20T10:05:16;95693.38;;;4.72;100.00
65800;BME280;52544;48.116;11.660;2023-12-20T10:07:45;95694.97;;;4.75;100.00
65800;BME280;52544;48.116;11.660;2023-12-20T10:10:12;95688.13;;;4.72;100.00
65800;BME280;52544;48.116;11.660;2023-12-20T10:12:38;95680.44;;;4.84;100.00
65800;BME280;52544;48.116;11.660;2023-12-20T10:15:04;95684.50;;;4.89;100.00
65800;BME280;52544;48.116;11.660;2023-12-20T10:17:30;95687.97;;;4.90;100.00
65800;BME280;52544;48.116;11.660;2023-12-20T10:19:55;95688.78;;;4.90;100.00
65800;BME280;52544;48.116;11.660;2023-12-20T10:22:21;95685.34;;;4.90;100.00
65800;BME280;52544;48.116;11.660;2023-12-20T10:24:47;95689.44;;;4.94;100.00
65800;BME280;52544;48.116;11.660;2023-12-20T10:27:12;95675.94;;;5.00;100.00
65800;BME280;52544;48.116;11.660;2023-12-20T10:29:38;95678.22;;;5.06;100.00
65800;BME280;52544;48.116;11.660;2023-12-20T10:32:23;95679.13;;;5.19;100.00
65800;BME280;52544;48.116;11.660;2023-12-20T10:34:50;95672.19;;;5.18;100.00
65800;BME280;52544;48.116;11.660;2023-12-20T10:37:15;95673.41;;;5.13;100.00
65800;BME280;52544;48.116;11.660;2023-12-20T10:39:42;95655.03;;;5.13;100.00
65800;BME280;52544;48.116;11.660;2023-12-20T10:42:09;95673.69;;;5.08;100.00
65800;BME280;52544;48.116;11.660;2023-12-20T10:44:35;95666.47;;;5.12;100.00
65800;BME280;52544;48.116;11.660;2023-12-20T10:47:01;95660.56;;;5.08;100.00
65800;BME280;52544;48.116;11.660;2023-12-20T10:49:27;95662.47;;;5.06;100.00
65800;BME280;52544;48.116;11.660;2023-12-20T10:51:54;95672.31;;;5.03;100.00
65800;BME280;52544;48.116;11.660;2023-12-20T10:54:19;95659.25;;;5.01;100.00
65800;BME280;52544;48.116;11.660;2023-12-20T10:56:45;95661.34;;;5.10;100.00
65800;BME280;52544;48.116;11.660;2023-12-20T10:59:11;95661.06;;;5.15;100.00
65800;BME280;52544;48.116;11.660;2023-12-20T11:01:38;95649.72;;;5.14;100.00
65800;BME280;52544;48.116;11.660;2023-12-20T11:04:10;95655.41;;;5.21;100.00
65800;BME280;52544;48.116;11.660;2023-12-20T11:06:42;95659.69;;;5.36;100.00
65800;BME280;52544;48.116;11.660;2023-12-20T11:09:31;95649.16;;;5.50;100.00
65800;BME280;52544;48.116;11.660;2023-12-20T11:12:17;95663.03;;;5.38;100.00
65800;BME280;52544;48.116;11.660;2023-12-20T11:14:47;95652.59;;;5.24;100.00
65800;BME280;52544;48.116;11.660;2023-12-20T11:17:13;95651.84;;;5.22;100.00
65800;BME280;52544;48.116;11.660;2023-12-20T11:22:20;95649.72;;;5.14;100.00
65800;BME280;52544;48.116;11.660;2023-12-20T11:24:46;95648.00;;;5.13;100.00
65800;BME280;52544;48.116;11.660;2023-12-20T11:27:13;95644.06;;;5.20;100.00
65800;BME280;52544;48.116;11.660;2023-12-20T11:29:39;95646.22;;;5.14;100.00
65800;BME280;52544;48.116;11.660;2023-12-20T11:34:50;95647.09;;;5.14;100.00
65800;BME280;52544;48.116;11.660;2023-12-20T11:37:16;95642.75;;;5.13;100.00
65800;BME280;52544;48.116;11.660;2023-12-20T11:39:43;95640.91;;;5.15;100.00
65800;BME280;52544;48.116;11.660;2023-12-20T11:42:10;95641.81;;;5.29;100.00
65800;BME280;52544;48.116;11.660;2023-12-20T11:44:36;95640.03;;;5.29;100.00
65800;BME280;52544;48.116;11.660;2023-12-20T11:47:02;95643.03;;;5.23;100.00
65800;BME280;52544;48.116;11.660;2023-12-20T11:49:27;95630.56;;;5.26;100.00
65800;BME280;52544;48.116;11.660;2023-12-20T11:51:56;95625.66;;;5.35;100.00
65800;BME280;52544;48.116;11.660;2023-12-20T11:54:22;95625.94;;;5.30;100.00
65800;BME280;52544;48.116;11.660;2023-12-20T11:56:47;95617.22;;;5.44;100.00
65800;BME280;52544;48.116;11.660;2023-12-20T11:59:13;95622.66;;;5.41;100.00
65800;BME280;52544;48.116;11.660;2023-12-20T12:01:38;95622.25;;;5.47;100.00
65800;BME280;52544;48.116;11.660;2023-12-20T12:04:07;95615.97;;;5.49;100.00
65800;BME280;52544;48.116;11.660;2023-12-20T12:06:33;95618.41;;;5.53;100.00
65800;BME280;52544;48.116;11.660;2023-12-20T12:08:58;95615.03;;;5.50;100.00
65800;BME280;52544;48.116;11.660;2023-12-20T12:11:24;95615.66;;;5.54;100.00
65800;BME280;52544;48.116;11.660;2023-12-20T12:13:50;95620.06;;;5.54;100.00
65800;BME280;52544;48.116;11.660;2023-12-20T12:16:19;95611.25;;;5.55;100.00
65800;BME280;52544;48.116;11.660;2023-12-20T12:18:45;95617.16;;;5.58;100.00
65800;BME280;52544;48.116;11.660;2023-12-20T12:21:19;95612.75;;;5.59;100.00
65800;BME280;52544;48.116;11.660;2023-12-20T12:23:45;95605.91;;;5.56;100.00
65800;BME280;52544;48.116;11.660;2023-12-20T12:26:11;95610.75;;;5.62;100.00
65800;BME280;52544;48.116;11.660;2023-12-20T12:28:39;95605.31;;;5.65;100.00
65800;BME280;52544;48.116;11.660;2023-12-20T12:31:05;95598.81;;;5.71;100.00
65800;BME280;52544;48.116;11.660;2023-12-20T12:33:30;95591.44;;;5.63;100.00
65800;BME280;52544;48.116;11.660;2023-12-20T12:35:56;95586.00;;;5.66;100.00
65800;BME280;52544;48.116;11.660;2023-12-20T12:38:22;95586.19;;;5.63;100.00
65800;BME280;52544;48.116;11.660;2023-12-20T12:40:48;95590.28;;;5.67;100.00
65800;BME280;52544;48.116;11.660;2023-12-20T12:43:15;95587.13;;;5.62;100.00
65800;BME280;52544;48.116;11.660;2023-12-20T12:45:40;95569.47;;;5.64;100.00
65800;BME280;52544;48.116;11.660;2023-12-20T12:48:06;95572.94;;;5.65;100.00
65800;BME280;52544;48.116;11.660;2023-12-20T12:50:31;95575.78;;;5.62;100.00
65800;BME280;52544;48.116;11.660;2023-12-20T12:52:57;95572.22;;;5.63;100.00